Time;durP1;ratioP1;P1;durP2;ratioP2;P2;SDS_P1;SDS_P2;PMS_P1;PMS_P2;Temp;Humidity;BMP_temperature;BMP_pressure;BME280_temperature;BME280_humidity;BME280_pressure;Samples;Min_cycle;Max_cycle;Signal;HPM_P1;HPM_P2
2022/05/01 00:01:59;;;;;;;11.80;9.30;;;7.60;99.90;;;;;;5074860;28;20051;-76
2022/05/01 00:04:25;;;;;;;13.27;9.07;;;7.40;99.90;;;;;;5057829;28;20049;-75
2022/05/01 00:06:51;;;;;;;11.75;9.75;;;7.40;99.90;;;;;;5074967;28;20084;-75
2022/05/01 00:09:17;;;;;;;13.30;9.43;;;7.40;99.90;;;;;;5074881;28;20137;-75
2022/05/01 00:11:42;;;;;;;11.55;9.60;;;7.30;99.90;;;;;;5057514;28;20439;-76
2022/05/01 00:14:08;;;;;;;10.23;9.05;;;7.20;99.90;;;;;;5057931;28;20503;-75
2022/05/01 00:16:33;;;;;;;10.70;9.52;;;7.10;99.90;;;;;;5074316;28;20131;-75
2022/05/01 00:19:00;;;;;;;11.65;9.27;;;7.10;99.90;;;;;;5058027;28;20481;-75
2022/05/01 00:21:25;;;;;;;10.48;9.23;;;7.10;99.90;;;;;;5085714;28;20063;-76
2022/05/01 00:23:51;;;;;;;10.18;9.07;;;7.10;99.90;;;;;;5077735;28;20052;-76
2022/05/01 00:26:17;;;;;;;10.18;8.80;;;6.90;99.90;;;;;;5078089;28;20044;-75
2022/05/01 00:28:42;;;;;;;9.23;8.30;;;6.90;99.90;;;;;;5077463;28;20403;-75
2022/05/01 00:31:08;;;;;;;10.45;8.95;;;6.90;99.90;;;;;;5094762;28;20044;-75
2022/05/01 00:36:27;;;;;;;11.15;9.57;;;6.70;99.90;;;;;;5080105;28;20052;-75
2022/05/01 00:38:57;;;;;;;10.90;9.52;;;6.60;99.90;;;;;;5095661;28;20093;-75
2022/05/01 00:41:23;;;;;;;10.73;8.73;;;6.50;99.90;;;;;;5077748;28;20044;-75
2022/05/01 00:44:09;;;;;;;11.63;9.30;;;6.40;99.90;;;;;;5060651;28;20040;-75
2022/05/01 00:46:36;;;;;;;10.75;9.63;;;6.40;99.90;;;;;;5078065;28;20396;-76
2022/05/01 00:49:04;;;;;;;12.25;9.65;;;6.40;99.90;;;;;;5094238;28;20059;-75
2022/05/01 00:51:31;;;;;;;13.52;10.55;;;6.30;99.90;;;;;;5077361;28;20392;-75
2022/05/01 00:53:56;;;;;;;10.70;9.60;;;6.20;99.90;;;;;;5060793;28;20050;-75
2022/05/01 00:56:24;;;;;;;9.93;8.98;;;6.20;99.90;;;;;;5060933;28;20044;-75
2022/05/01 00:58:50;;;;;;;11.02;9.32;;;6.20;99.90;;;;;;5060884;28;20044;-75
2022/05/01 01:01:15;;;;;;;11.75;9.40;;;6.10;99.90;;;;;;5077427;28;20050;-75
2022/05/01 01:03:41;;;;;;;10.35;9.25;;;6.10;99.90;;;;;;5093452;28;20118;-75
2022/05/01 01:06:07;;;;;;;12.23;9.82;;;6.10;99.90;;;;;;5075883;28;20463;-75
2022/05/01 01:08:32;;;;;;;11.23;8.68;;;6.10;99.90;;;;;;5094356;28;20040;-75
2022/05/01 01:10:58;;;;;;;11.30;8.98;;;6.00;99.90;;;;;;5093841;28;20063;-75
2022/05/01 01:13:27;;;;;;;10.15;9.05;;;5.90;99.90;;;;;;5093778;28;20043;-75
2022/05/01 01:15:54;;;;;;;12.60;9.90;;;5.90;99.90;;;;;;5076689;28;20485;-75
2022/05/01 01:18:20;;;;;;;12.75;10.10;;;5.90;99.90;;;;;;5093771;28;20098;-76
2022/05/01 01:20:46;;;;;;;11.32;9.93;;;5.80;99.90;;;;;;5100485;28;20492;-75
2022/05/01 01:23:13;;;;;;;13.90;10.57;;;5.90;99.90;;;;;;5080453;28;20075;-75
2022/05/01 01:25:38;;;;;;;11.38;10.18;;;5.70;99.90;;;;;;5079658;28;20436;-76
2022/05/01 01:28:05;;;;;;;13.88;10.85;;;5.60;99.90;;;;;;5080130;28;20452;-76
2022/05/01 01:33:19;;;;;;;11.68;9.63;;;5.60;99.90;;;;;;5114973;28;20578;-76
2022/05/01 01:35:47;;;;;;;11.07;9.30;;;5.50;99.90;;;;;;5079454;28;20061;-76
2022/05/01 01:38:12;;;;;;;12.75;10.20;;;5.40;99.90;;;;;;5079994;28;20046;-76
2022/05/01 01:40:39;;;;;;;12.63;9.00;;;5.40;99.90;;;;;;5079544;28;20433;-76
2022/05/01 01:43:05;;;;;;;11.30;9.35;;;5.30;99.90;;;;;;5096793;28;20051;-76
2022/05/01 01:45:31;;;;;;;11.43;9.45;;;5.20;99.90;;;;;;5063107;28;20441;-76
2022/05/01 01:48:08;;;;;;;10.52;8.98;;;5.10;99.90;;;;;;5114163;28;20040;-76
2022/05/01 01:50:33;;;;;;;12.13;9.48;;;5.10;99.90;;;;;;5098000;28;20043;-76
2022/05/01 01:52:59;;;;;;;10.32;8.82;;;5.10;99.90;;;;;;5096430;28;20544;-76
2022/05/01 01:55:25;;;;;;;10.32;9.25;;;5.10;99.90;;;;;;5096655;28;20074;-76
2022/05/01 01:57:51;;;;;;;10.30;9.20;;;5.10;99.90;;;;;;5096008;28;20488;-76
2022/05/01 02:00:16;;;;;;;10.18;8.98;;;5.10;99.90;;;;;;5096366;28;20046;-76
2022/05/01 02:02:42;;;;;;;11.85;10.65;;;5.00;99.90;;;;;;5095767;28;20040;-76
2022/05/01 02:05:08;;;;;;;11.45;9.70;;;5.00;99.90;;;;;;5096224;28;20560;-76
2022/05/01 02:07:33;;;;;;;10.15;9.07;;;4.90;99.90;;;;;;5062936;28;20047;-76
2022/05/01 02:10:00;;;;;;;10.32;8.75;;;4.90;99.90;;;;;;5095354;28;20184;-76
2022/05/01 02:12:26;;;;;;;9.38;7.57;;;4.80;99.90;;;;;;5096214;28;20044;-75
2022/05/01 02:14:52;;;;;;;7.93;7.15;;;4.80;99.90;;;;;;5078419;28;20039;-76
2022/05/01 02:17:18;;;;;;;8.10;7.30;;;4.80;99.90;;;;;;5095953;28;20046;-75
2022/05/01 02:19:43;;;;;;;8.52;7.63;;;4.80;99.90;;;;;;5113616;28;20044;-76
2022/05/01 02:22:09;;;;;;;9.07;7.65;;;4.80;99.90;;;;;;5078902;28;20074;-76
2022/05/01 02:24:34;;;;;;;8.13;6.85;;;4.70;99.90;;;;;;5113948;28;20361;-76
2022/05/01 02:27:00;;;;;;;7.65;6.85;;;4.70;99.90;;;;;;5095526;28;20378;-75
2022/05/01 02:29:26;;;;;;;6.05;5.45;;;4.80;99.90;;;;;;5078833;28;20043;-75
2022/05/01 02:31:55;;;;;;;9.70;7.05;;;4.80;99.90;;;;;;5112339;28;20043;-76
2022/05/01 02:34:22;;;;;;;9.23;8.32;;;4.70;99.90;;;;;;5079113;28;20044;-75
2022/05/01 02:36:48;;;;;;;10.98;8.57;;;4.70;99.90;;;;;;5078329;28;20146;-75
2022/05/01 02:39:14;;;;;;;8.80;8.00;;;4.70;99.90;;;;;;5062276;28;20086;-75
2022/05/01 02:41:40;;;;;;;9.88;8.07;;;4.70;99.90;;;;;;5113588;28;20090;-75
2022/05/01 02:44:05;;;;;;;9.05;8.13;;;4.70;99.90;;;;;;5078330;28;20059;-75
2022/05/01 02:46:32;;;;;;;9.13;8.23;;;4.60;99.90;;;;;;5095443;28;20395;-76
2022/05/01 02:48:58;;;;;;;9.05;7.72;;;4.60;99.90;;;;;;5095022;28;20043;-75
2022/05/01 02:51:24;;;;;;;7.97;7.13;;;4.60;99.90;;;;;;5062221;28;20058;-75
2022/05/01 02:53:49;;;;;;;7.88;7.18;;;4.50;99.90;;;;;;5078085;28;20044;-75
2022/05/01 02:56:15;;;;;;;8.52;7.65;;;4.50;99.90;;;;;;5061808;28;20091;-76
2022/05/01 02:58:41;;;;;;;9.88;8.80;;;4.30;99.90;;;;;;5095413;28;20055;-75
2022/05/01 03:01:07;;;;;;;10.00;8.93;;;4.30;99.90;;;;;;5094636;28;20039;-76
2022/05/01 03:03:33;;;;;;;9.43;8.43;;;4.20;99.90;;;;;;5113291;28;20035;-75
2022/05/01 03:05:58;;;;;;;9.52;8.55;;;4.20;99.90;;;;;;5061379;28;20484;-75
2022/05/01 03:08:24;;;;;;;9.43;8.57;;;4.10;99.90;;;;;;5095193;28;20048;-75
2022/05/01 03:10:50;;;;;;;8.23;7.53;;;4.10;99.90;;;;;;5094936;28;20075;-75
2022/05/01 03:13:17;;;;;;;9.10;7.85;;;4.20;99.90;;;;;;5095029;28;20051;-75
2022/05/01 03:15:42;;;;;;;10.40;9.27;;;4.20;99.90;;;;;;5095297;28;20043;-76
2022/05/01 03:23:37;;;;;;;11.43;10.00;;;4.40;99.90;;;;;;5097693;28;20453;-76
2022/05/01 03:26:02;;;;;;;10.15;9.13;;;4.30;99.90;;;;;;5077850;28;20047;-76
2022/05/01 03:28:28;;;;;;;13.13;10.38;;;4.20;99.90;;;;;;5077885;28;20096;-76
2022/05/01 03:30:54;;;;;;;10.77;9.40;;;4.20;99.90;;;;;;5077487;28;20048;-76
2022/05/01 03:33:21;;;;;;;11.13;10.02;;;4.30;99.90;;;;;;5112869;28;20430;-75
2022/05/01 03:35:48;;;;;;;11.82;10.20;;;4.20;99.90;;;;;;5094854;28;20048;-75
2022/05/01 03:38:15;;;;;;;12.57;10.93;;;4.10;99.90;;;;;;5112808;28;20074;-77
2022/05/01 03:40:41;;;;;;;12.48;11.18;;;4.10;99.90;;;;;;5078367;28;20079;-76
2022/05/01 03:43:07;;;;;;;15.38;12.30;;;4.00;99.90;;;;;;5077568;28;20111;-76
2022/05/01 03:45:32;;;;;;;11.82;10.52;;;3.90;99.90;;;;;;5094768;28;20471;-76
2022/05/01 03:47:58;;;;;;;11.65;10.45;;;3.90;99.90;;;;;;5077510;28;20408;-75
2022/05/01 03:50:24;;;;;;;10.93;9.82;;;3.90;99.90;;;;;;5061371;28;20044;-76
2022/05/01 03:52:50;;;;;;;11.15;10.05;;;3.90;99.90;;;;;;5077847;28;20138;-75
2022/05/01 03:55:16;;;;;;;12.32;10.80;;;3.80;99.90;;;;;;5112604;28;20055;-75
2022/05/01 03:57:42;;;;;;;12.00;10.68;;;3.80;99.90;;;;;;5094802;28;20047;-75
2022/05/01 04:00:18;;;;;;;10.80;9.80;;;3.80;99.90;;;;;;5077308;28;20129;-76
2022/05/01 04:02:44;;;;;;;12.10;10.80;;;3.80;99.90;;;;;;5064012;28;20085;-75
2022/05/01 04:05:10;;;;;;;11.75;10.18;;;3.80;99.90;;;;;;5077401;28;20044;-75
2022/05/01 04:07:36;;;;;;;11.88;10.68;;;3.70;99.90;;;;;;5077859;28;20058;-76
2022/05/01 04:10:02;;;;;;;8.52;7.10;;;3.60;99.90;;;;;;5077364;28;20126;-76
2022/05/01 04:12:27;;;;;;;7.20;6.50;;;3.60;99.90;;;;;;5077656;28;20386;-75
2022/05/01 04:14:53;;;;;;;7.93;7.22;;;3.60;99.90;;;;;;5094272;28;20039;-75
2022/05/01 04:17:18;;;;;;;7.95;7.15;;;3.50;99.90;;;;;;5112094;28;20113;-75
2022/05/01 04:19:44;;;;;;;9.00;7.55;;;3.50;99.90;;;;;;5112423;28;20475;-76
2022/05/01 04:22:10;;;;;;;9.00;8.10;;;3.50;99.90;;;;;;5111647;28;20052;-75
2022/05/01 04:24:35;;;;;;;9.48;8.48;;;3.50;99.90;;;;;;5094570;28;20048;-76
2022/05/01 04:27:04;;;;;;;10.95;8.70;;;3.50;99.90;;;;;;5112090;28;20101;-75
2022/05/01 04:29:43;;;;;;;12.75;10.88;;;3.40;99.90;;;;;;5112459;28;20046;-75
2022/05/01 04:32:09;;;;;;;13.20;10.40;;;3.40;99.90;;;;;;5112090;28;20048;-75
2022/05/01 04:34:35;;;;;;;15.45;11.63;;;3.40;99.90;;;;;;5077367;28;20390;-77
2022/05/01 04:37:01;;;;;;;16.55;12.90;;;3.60;99.90;;;;;;5077129;28;20395;-77
2022/05/01 04:39:27;;;;;;;15.93;12.50;;;3.50;99.90;;;;;;5112415;28;20050;-75
2022/05/01 04:41:53;;;;;;;13.85;11.70;;;3.50;99.90;;;;;;5079292;28;20039;-75
2022/05/01 04:44:19;;;;;;;14.00;10.88;;;3.60;99.90;;;;;;5097491;28;20051;-75
2022/05/01 04:46:49;;;;;;;12.13;10.10;;;3.50;99.90;;;;;;5097836;28;20134;-75
2022/05/01 04:49:16;;;;;;;15.90;11.07;;;3.60;99.90;;;;;;5097608;28;20126;-75
2022/05/01 04:51:42;;;;;;;13.38;11.98;;;3.60;99.90;;;;;;5081141;28;20043;-75
2022/05/01 04:54:08;;;;;;;16.05;13.15;;;3.60;99.90;;;;;;5080270;28;20048;-76
2022/05/01 04:59:17;;;;;;;16.08;14.07;;;3.70;99.90;;;;;;5115346;28;20052;-75
2022/05/01 05:01:43;;;;;;;14.45;13.05;;;3.70;99.90;;;;;;5080822;28;20368;-75
2022/05/01 05:04:09;;;;;;;16.95;13.60;;;3.80;99.90;;;;;;5115169;28;20046;-75
2022/05/01 05:06:34;;;;;;;14.85;13.25;;;3.80;99.90;;;;;;5097521;28;20044;-75
2022/05/01 05:11:44;;;;;;;14.27;12.68;;;3.80;99.90;;;;;;5083266;28;20051;-74
2022/05/01 05:14:10;;;;;;;14.10;12.70;;;3.80;99.90;;;;;;5114684;28;20043;-75
2022/05/01 05:16:35;;;;;;;15.93;13.60;;;3.90;99.90;;;;;;5115291;28;20065;-78
2022/05/01 05:19:01;;;;;;;15.45;13.13;;;4.00;99.90;;;;;;5097283;28;20070;-78
2022/05/01 05:21:27;;;;;;;16.38;13.65;;;4.10;99.90;;;;;;5114241;28;20059;-77
2022/05/01 05:23:54;;;;;;;18.05;13.63;;;4.10;99.90;;;;;;5063784;28;20130;-77
2022/05/01 05:26:20;;;;;;;15.25;13.00;;;4.20;99.90;;;;;;5096602;28;20121;-78
2022/05/01 05:28:46;;;;;;;13.23;11.68;;;4.30;99.90;;;;;;5097121;28;20126;-79
2022/05/01 05:31:11;;;;;;;13.18;11.88;;;4.20;99.90;;;;;;5079733;28;20047;-79
2022/05/01 05:33:37;;;;;;;14.43;12.93;;;4.30;99.90;;;;;;5080128;28;20039;-78
2022/05/01 05:36:03;;;;;;;14.27;12.77;;;4.30;99.90;;;;;;5096978;28;20395;-79
2022/05/01 05:38:28;;;;;;;13.98;12.48;;;4.30;99.90;;;;;;5114600;28;20047;-75
2022/05/01 05:40:54;;;;;;;13.68;12.27;;;4.40;99.90;;;;;;5096692;28;20051;-77
2022/05/01 05:43:20;;;;;;;15.30;12.60;;;4.40;99.90;;;;;;5096496;28;20076;-78
2022/05/01 05:45:45;;;;;;;14.13;12.63;;;4.50;99.90;;;;;;5079993;28;20172;-79
2022/05/01 05:48:11;;;;;;;14.13;12.63;;;4.50;99.90;;;;;;5114382;28;20126;-76
2022/05/01 05:50:36;;;;;;;14.35;12.85;;;4.60;99.90;;;;;;5096746;28;20391;-76
2022/05/01 05:53:02;;;;;;;17.20;13.18;;;4.60;99.90;;;;;;5079194;28;20047;-77
2022/05/01 05:55:33;;;;;;;16.50;14.38;;;4.70;99.90;;;;;;5062831;28;20092;-76
2022/05/01 05:57:59;;;;;;;15.35;13.75;;;4.70;99.90;;;;;;5097216;28;20082;-81
2022/05/01 06:00:25;;;;;;;15.70;13.57;;;4.80;99.90;;;;;;5079150;28;20053;-76
2022/05/01 06:02:50;;;;;;;15.82;14.10;;;4.80;99.90;;;;;;5096477;28;20130;-77
2022/05/01 06:05:16;;;;;;;16.45;14.70;;;4.90;99.90;;;;;;5095985;28;20082;-77
2022/05/01 06:07:42;;;;;;;15.88;14.27;;;5.00;99.90;;;;;;5079498;28;20061;-78
2022/05/01 06:10:08;;;;;;;14.90;13.35;;;5.00;99.90;;;;;;5096273;28;20480;-77
2022/05/01 06:12:42;;;;;;;15.10;13.60;;;5.10;99.90;;;;;;5078992;28;20415;-75
2022/05/01 06:15:09;;;;;;;15.68;13.85;;;5.30;99.90;;;;;;5095888;28;20083;-78
2022/05/01 06:17:34;;;;;;;18.63;14.00;;;5.30;99.90;;;;;;5078875;28;20051;-75
2022/05/01 06:20:00;;;;;;;16.73;13.95;;;5.40;99.90;;;;;;5078966;28;20436;-78
2022/05/01 06:22:26;;;;;;;17.95;13.90;;;5.50;99.90;;;;;;5078644;28;20050;-75
2022/05/01 06:24:51;;;;;;;16.10;14.50;;;5.60;99.90;;;;;;5062644;28;20399;-76
2022/05/01 06:27:17;;;;;;;17.30;15.18;;;5.70;99.90;;;;;;5095563;28;20048;-75
2022/05/01 06:29:44;;;;;;;15.60;14.10;;;5.80;99.90;;;;;;5078897;28;20051;-77
2022/05/01 06:32:10;;;;;;;15.90;14.40;;;5.80;99.90;;;;;;5095886;28;20127;-78
2022/05/01 06:34:36;;;;;;;14.70;13.20;;;5.90;99.90;;;;;;5061927;28;20131;-78
2022/05/01 06:37:02;;;;;;;14.75;13.25;;;5.90;99.90;;;;;;5079324;28;20032;-77
2022/05/01 06:39:28;;;;;;;14.23;12.82;;;6.10;99.90;;;;;;5095435;28;20556;-77
2022/05/01 06:41:54;;;;;;;14.55;13.05;;;6.10;99.90;;;;;;5045370;28;20399;-78
2022/05/01 06:44:19;;;;;;;14.38;12.98;;;6.20;99.90;;;;;;5061799;28;20043;-79
2022/05/01 06:46:45;;;;;;;13.90;12.43;;;6.30;99.90;;;;;;5078839;28;20053;-80
2022/05/01 06:49:11;;;;;;;12.63;11.52;;;6.50;99.90;;;;;;5095559;28;20209;-80
2022/05/01 06:51:37;;;;;;;11.57;10.50;;;6.50;99.90;;;;;;5078058;28;20055;-81
2022/05/01 06:54:06;;;;;;;11.98;10.68;;;6.60;99.90;;;;;;5078448;28;20472;-80
2022/05/01 06:56:31;;;;;;;8.55;7.72;;;6.70;99.90;;;;;;5078721;28;20100;-79
2022/05/01 06:58:57;;;;;;;9.70;8.68;;;6.80;99.90;;;;;;5095436;28;20039;-80
2022/05/01 07:01:23;;;;;;;10.07;9.07;;;7.00;99.90;;;;;;5044768;28;20457;-78
2022/05/01 07:03:48;;;;;;;11.82;8.65;;;7.00;99.90;;;;;;5094623;28;20055;-78
2022/05/01 07:06:14;;;;;;;10.75;9.65;;;7.10;99.90;;;;;;5078374;28;20130;-76
2022/05/01 07:08:39;;;;;;;10.30;9.23;;;7.20;99.90;;;;;;5112719;28;20043;-76
2022/05/01 07:11:05;;;;;;;10.77;9.40;;;7.40;99.90;;;;;;5113152;28;20047;-76
2022/05/01 07:13:31;;;;;;;11.05;8.93;;;7.50;99.90;;;;;;5094609;28;20046;-76
2022/05/01 07:15:56;;;;;;;9.73;8.30;;;7.60;99.90;;;;;;5113133;28;20058;-76
2022/05/01 07:18:23;;;;;;;9.05;8.00;;;7.70;99.90;;;;;;5094699;28;20040;-75
2022/05/01 07:20:48;;;;;;;9.13;8.05;;;7.90;99.90;;;;;;5094829;28;20126;-76
2022/05/01 07:23:14;;;;;;;8.00;7.25;;;7.90;99.90;;;;;;5094955;28;20502;-76
2022/05/01 07:25:40;;;;;;;9.27;8.00;;;7.90;99.90;;;;;;5094602;28;20047;-76
2022/05/01 07:28:05;;;;;;;11.38;8.13;;;8.00;99.90;;;;;;5094985;28;20050;-76
2022/05/01 07:30:31;;;;;;;9.00;7.78;;;8.10;99.90;;;;;;5112652;28;20087;-76
2022/05/01 07:32:58;;;;;;;9.52;8.52;;;8.10;99.90;;;;;;5094781;28;20055;-76
2022/05/01 07:35:24;;;;;;;8.23;7.28;;;8.20;99.90;;;;;;5112088;28;20523;-76
2022/05/01 07:37:49;;;;;;;8.90;8.00;;;8.30;99.90;;;;;;5094868;28;20040;-75
2022/05/01 07:40:15;;;;;;;10.65;8.30;;;8.40;99.90;;;;;;5094996;28;20070;-75
2022/05/01 07:42:41;;;;;;;12.02;8.55;;;8.40;99.90;;;;;;5077031;28;20051;-75
2022/05/01 07:45:07;;;;;;;9.73;7.60;;;8.60;99.90;;;;;;5112560;28;20044;-75
2022/05/01 07:47:32;;;;;;;9.00;8.05;;;8.70;99.90;;;;;;5094530;28;20048;-75
2022/05/01 07:49:58;;;;;;;9.55;7.47;;;8.90;99.90;;;;;;5112878;28;20100;-75
2022/05/01 07:52:25;;;;;;;9.88;7.50;;;9.00;99.90;;;;;;5112967;28;20130;-75
2022/05/01 07:54:51;;;;;;;8.27;6.85;;;9.10;99.90;;;;;;5112906;28;20054;-75
2022/05/01 07:57:17;;;;;;;7.57;6.55;;;9.20;99.90;;;;;;5094749;28;20387;-75
2022/05/01 07:59:42;;;;;;;8.05;7.00;;;9.30;99.90;;;;;;5094085;28;20040;-75
2022/05/01 08:02:09;;;;;;;9.32;6.70;;;9.30;99.90;;;;;;5094534;28;20048;-76
2022/05/01 08:04:35;;;;;;;7.05;6.35;;;9.40;99.90;;;;;;5110627;28;20395;-76
2022/05/01 08:07:02;;;;;;;8.63;6.93;;;9.50;99.90;;;;;;5126763;28;20406;-76
2022/05/01 08:09:28;;;;;;;9.07;6.80;;;9.50;99.90;;;;;;5132891;28;20047;-76
2022/05/01 08:11:53;;;;;;;7.68;6.85;;;9.60;99.90;;;;;;5114975;28;20124;-75
2022/05/01 08:14:20;;;;;;;10.15;6.35;;;9.60;99.90;;;;;;5092376;28;20047;-76
2022/05/01 08:16:46;;;;;;;6.53;5.90;;;9.70;99.90;;;;;;5109831;28;20048;-75
2022/05/01 08:21:56;;;;;;;8.70;6.22;;;9.90;99.90;;;;;;5127644;27;20121;-75
2022/05/01 08:24:21;;;;;;;7.20;6.50;;;10.00;99.60;;;;;;5136723;27;20068;-75
2022/05/01 08:26:48;;;;;;;7.68;6.60;;;10.10;99.40;;;;;;5117765;27;20046;-75
2022/05/01 08:29:14;;;;;;;9.80;6.45;;;10.10;99.50;;;;;;5084924;27;20051;-76
2022/05/01 08:31:41;;;;;;;7.90;6.63;;;10.20;99.30;;;;;;5129819;27;20218;-76
2022/05/01 08:34:07;;;;;;;6.45;5.88;;;10.20;98.70;;;;;;5080948;28;20455;-76
2022/05/01 08:36:33;;;;;;;7.10;5.82;;;10.30;98.60;;;;;;5099187;27;20112;-76
2022/05/01 08:38:59;;;;;;;7.47;5.72;;;10.40;98.10;;;;;;5094573;28;20484;-75
2022/05/01 08:41:25;;;;;;;7.38;6.43;;;10.40;97.70;;;;;;5115794;28;20040;-75
2022/05/01 08:43:51;;;;;;;8.07;6.30;;;10.50;97.50;;;;;;5087679;27;20503;-75
2022/05/01 08:46:36;;;;;;;7.15;5.78;;;10.60;96.90;;;;;;5084632;27;20047;-75
2022/05/01 08:49:08;;;;;;;6.95;6.10;;;10.70;96.00;;;;;;5130047;27;20483;-76
2022/05/01 08:51:40;;;;;;;6.68;5.97;;;10.70;96.50;;;;;;5108690;28;20056;-79
2022/05/01 08:54:10;;;;;;;6.78;5.70;;;10.80;96.10;;;;;;5115265;28;20047;-75
2022/05/01 08:56:37;;;;;;;7.95;6.63;;;10.90;95.80;;;;;;5081217;27;20043;-76
2022/05/01 08:59:05;;;;;;;6.00;5.28;;;10.90;95.40;;;;;;5117869;27;20520;-76
2022/05/01 09:01:34;;;;;;;6.78;5.57;;;11.00;94.80;;;;;;5117979;27;20050;-76
2022/05/01 09:04:00;;;;;;;7.85;5.35;;;11.00;93.90;;;;;;5136293;27;20043;-76
2022/05/01 09:06:26;;;;;;;5.90;4.55;;;11.00;93.50;;;;;;5083965;27;20047;-76
2022/05/01 09:08:51;;;;;;;7.93;5.20;;;11.10;93.50;;;;;;5117478;27;20047;-75
2022/05/01 09:14:03;;;;;;;6.68;5.15;;;11.20;93.00;;;;;;5120548;27;20043;-76
2022/05/01 09:16:29;;;;;;;7.65;4.97;;;11.30;93.30;;;;;;5100939;27;20499;-75
2022/05/01 09:18:54;;;;;;;6.43;5.50;;;11.30;93.00;;;;;;5135477;27;20275;-76
2022/05/01 09:21:20;;;;;;;6.05;5.43;;;11.40;92.50;;;;;;5117259;27;20055;-76
2022/05/01 09:23:46;;;;;;;5.70;4.68;;;11.40;92.00;;;;;;5116970;27;20051;-76
2022/05/01 09:26:14;;;;;;;6.25;5.50;;;11.50;92.30;;;;;;5135476;27;20125;-76
2022/05/01 09:28:47;;;;;;;7.18;5.75;;;11.50;92.00;;;;;;5099531;27;20039;-76
2022/05/01 09:31:12;;;;;;;7.00;5.30;;;11.60;89.60;;;;;;5117533;27;20487;-76
2022/05/01 09:33:38;;;;;;;10.15;5.60;;;11.60;91.10;;;;;;5099758;27;20088;-77
2022/05/01 09:36:04;;;;;;;6.28;5.03;;;11.70;90.60;;;;;;5100454;27;20043;-76
2022/05/01 09:38:29;;;;;;;7.20;5.10;;;11.70;90.90;;;;;;5100157;27;20043;-76
2022/05/01 09:41:00;;;;;;;8.07;5.45;;;11.80;90.70;;;;;;5135194;27;20050;-76
2022/05/01 09:43:45;;;;;;;5.53;4.53;;;11.90;90.60;;;;;;5101055;27;20104;-76
2022/05/01 09:46:24;;;;;;;5.88;5.25;;;11.90;90.30;;;;;;5083426;27;20540;-76
2022/05/01 09:48:57;;;;;;;7.55;5.00;;;12.00;90.60;;;;;;5134883;27;20039;-78
2022/05/01 09:51:23;;;;;;;5.63;4.80;;;12.00;88.30;;;;;;5116680;27;20506;-77
2022/05/01 09:53:48;;;;;;;8.13;5.05;;;12.10;88.50;;;;;;5082648;27;20039;-78
2022/05/01 09:56:14;;;;;;;6.07;4.80;;;12.10;87.90;;;;;;5117196;27;20039;-77
2022/05/01 09:58:40;;;;;;;5.63;4.53;;;12.10;85.90;;;;;;5082855;27;20054;-81
2022/05/01 10:01:13;;;;;;;7.05;4.65;;;12.10;85.20;;;;;;5083252;27;20075;-78
2022/05/01 10:03:46;;;;;;;5.95;4.70;;;12.20;85.10;;;;;;5083019;27;20483;-78
2022/05/01 10:06:14;;;;;;;6.40;4.88;;;12.20;85.90;;;;;;5100370;27;20039;-76
2022/05/01 10:08:41;;;;;;;7.15;4.45;;;12.30;85.90;;;;;;5116784;27;20129;-78
2022/05/01 10:11:07;;;;;;;8.20;4.65;;;12.30;84.20;;;;;;5116860;27;20467;-76
2022/05/01 10:13:34;;;;;;;4.95;4.15;;;12.30;85.10;;;;;;5134751;27;20047;-76
2022/05/01 10:16:00;;;;;;;6.50;4.63;;;12.40;83.90;;;;;;5099405;27;20085;-78
2022/05/01 10:18:26;;;;;;;5.78;4.30;;;12.50;83.30;;;;;;5116573;27;20070;-77
2022/05/01 10:20:52;;;;;;;6.05;4.85;;;12.60;84.30;;;;;;5115677;27;20051;-77
2022/05/01 10:23:18;;;;;;;5.43;4.90;;;12.70;85.10;;;;;;5082879;27;20055;-78
2022/05/01 10:25:49;;;;;;;6.28;4.60;;;12.80;83.80;;;;;;5099426;27;20054;-81
2022/05/01 10:28:42;;;;;;;5.20;4.35;;;12.90;81.70;;;;;;5082722;27;20043;-78
2022/05/01 10:34:49;;;;;;;6.43;4.20;;;13.00;79.30;;;;;;5115641;27;20079;-78
2022/05/01 10:37:36;;;;;;;5.65;4.32;;;13.00;78.40;;;;;;5092969;27;20051;-76
2022/05/01 10:40:01;;;;;;;5.85;4.22;;;13.00;78.30;;;;;;5133993;27;20137;-78
2022/05/01 10:42:34;;;;;;;5.15;4.15;;;13.00;77.50;;;;;;5098987;27;20443;-77
2022/05/01 10:45:01;;;;;;;5.68;4.30;;;13.10;76.10;;;;;;5081942;27;20043;-78
2022/05/01 10:47:36;;;;;;;5.63;3.80;;;13.10;77.10;;;;;;5082372;27;20126;-78
2022/05/01 10:50:06;;;;;;;5.10;3.47;;;13.20;76.60;;;;;;5098362;27;20055;-77
2022/05/01 10:52:33;;;;;;;4.95;3.60;;;13.30;75.00;;;;;;5115699;27;20096;-77
2022/05/01 10:55:01;;;;;;;4.80;3.97;;;13.40;74.40;;;;;;5081501;27;20043;-76
2022/05/01 10:57:27;;;;;;;7.05;3.35;;;13.60;72.50;;;;;;5133849;27;20043;-76
2022/05/01 11:00:15;;;;;;;5.82;3.28;;;13.70;70.10;;;;;;5115268;27;20045;-76
2022/05/01 11:02:48;;;;;;;4.00;2.97;;;13.80;63.50;;;;;;5115892;27;20104;-76
2022/05/01 11:05:42;;;;;;;4.15;3.20;;;13.80;65.60;;;;;;5115783;27;20058;-76
2022/05/01 11:08:29;;;;;;;4.90;3.25;;;13.90;64.70;;;;;;5133373;27;20046;-76
2022/05/01 11:10:57;;;;;;;3.58;2.88;;;13.90;65.10;;;;;;5098722;27;20475;-75
2022/05/01 11:13:33;;;;;;;4.43;3.50;;;13.90;66.40;;;;;;5098626;28;20039;-83
2022/05/01 11:15:59;;;;;;;5.45;3.53;;;14.10;64.70;;;;;;5081533;27;20043;-75
2022/05/01 11:18:36;;;;;;;4.90;4.40;;;14.10;65.40;;;;;;5115438;27;20051;-76
2022/05/01 11:21:20;;;;;;;4.97;4.50;;;14.10;65.00;;;;;;5097408;27;20061;-78
2022/05/01 11:23:46;;;;;;;5.75;4.05;;;14.00;64.90;;;;;;5115609;27;20091;-76
2022/05/01 11:26:13;;;;;;;5.03;4.05;;;13.90;67.40;;;;;;5114919;28;20055;-76
2022/05/01 11:28:48;;;;;;;4.78;4.28;;;13.80;68.80;;;;;;5098466;28;20194;-75
2022/05/01 11:31:39;;;;;;;7.28;4.05;;;13.80;69.80;;;;;;5114675;28;20499;-77
2022/05/01 11:34:16;;;;;;;5.10;3.97;;;13.80;67.10;;;;;;5132788;28;20043;-79
2022/05/01 11:37:04;;;;;;;6.20;4.20;;;13.70;68.10;;;;;;5133425;28;20050;-79
2022/05/01 11:39:45;;;;;;;4.22;3.83;;;13.70;67.00;;;;;;5098353;28;20039;-79
2022/05/01 11:42:26;;;;;;;5.10;4.13;;;13.70;67.60;;;;;;5115076;28;20389;-79
2022/05/01 11:44:57;;;;;;;4.00;3.60;;;13.70;67.60;;;;;;5114844;28;20487;-78
2022/05/01 11:47:27;;;;;;;4.55;3.83;;;13.70;67.70;;;;;;5133318;28;20103;-75
2022/05/01 11:49:53;;;;;;;5.10;3.88;;;13.80;67.20;;;;;;5115223;27;20046;-79
2022/05/01 11:52:19;;;;;;;5.03;3.22;;;13.80;66.90;;;;;;5137578;27;20424;-78
2022/05/01 11:55:06;;;;;;;3.55;3.25;;;13.90;66.40;;;;;;5119150;27;20047;-78
2022/05/01 12:03:03;;;;;;;4.72;3.30;;;14.10;64.00;;;;;;5104379;27;20050;-78
2022/05/01 12:05:40;;;;;;;4.13;3.40;;;14.10;64.80;;;;;;5101834;27;20050;-79
2022/05/01 12:08:06;;;;;;;4.32;3.45;;;14.20;63.70;;;;;;5119476;27;20092;-76
2022/05/01 12:10:31;;;;;;;4.28;3.88;;;14.20;63.80;;;;;;5118818;27;20055;-75
2022/05/01 12:12:57;;;;;;;5.68;3.78;;;14.10;63.90;;;;;;5136990;27;20051;-78
2022/05/01 12:15:22;;;;;;;5.78;3.80;;;14.10;63.20;;;;;;5118681;27;20047;-74
2022/05/01 12:17:48;;;;;;;4.40;3.33;;;14.20;64.10;;;;;;5118639;27;20049;-75
2022/05/01 12:20:14;;;;;;;5.55;3.28;;;14.20;64.10;;;;;;5136156;27;20046;-74
2022/05/01 12:22:39;;;;;;;8.02;4.05;;;14.30;63.10;;;;;;5084627;27;20126;-77
2022/05/01 12:25:10;;;;;;;4.47;3.30;;;14.30;63.20;;;;;;5118327;27;20556;-78
2022/05/01 12:27:40;;;;;;;;;;;14.40;63.10;;;;;;5119161;27;20047;-79
2022/05/01 12:30:06;;;;;;;4.18;3.50;;;14.30;62.10;;;;;;5118722;27;19920;-77
2022/05/01 12:32:32;;;;;;;5.45;3.60;;;14.20;63.30;;;;;;5118643;27;20082;-79
2022/05/01 12:35:03;;;;;;;4.90;2.95;;;14.20;61.80;;;;;;5101482;27;20089;-77
2022/05/01 12:37:34;;;;;;;4.35;3.42;;;14.20;62.70;;;;;;5118709;27;20391;-79
2022/05/01 12:40:03;;;;;;;4.32;3.40;;;14.30;63.40;;;;;;5101609;27;20047;-76
2022/05/01 12:45:16;;;;;;;4.95;3.50;;;14.30;62.20;;;;;;5089380;27;20099;-79
2022/05/01 12:47:52;;;;;;;3.70;3.25;;;14.40;62.10;;;;;;5101067;27;20108;-77
2022/05/01 12:50:21;;;;;;;4.18;3.42;;;14.40;61.50;;;;;;5083499;27;20055;-77
2022/05/01 12:52:48;;;;;;;3.22;2.92;;;14.40;62.90;;;;;;5118185;27;20364;-77
2022/05/01 12:55:18;;;;;;;3.92;2.85;;;14.40;63.00;;;;;;5117417;27;20078;-77
2022/05/01 12:57:51;;;;;;;3.80;3.08;;;14.40;61.60;;;;;;5084597;27;20384;-77
2022/05/01 13:00:41;;;;;;;3.83;3.25;;;14.40;61.20;;;;;;5100826;27;20043;-77
2022/05/01 13:03:14;;;;;;;4.13;3.55;;;14.40;60.50;;;;;;5099209;27;20395;-77
2022/05/01 13:05:40;;;;;;;4.97;3.45;;;14.40;61.20;;;;;;5100873;27;20092;-76
2022/05/01 13:08:19;;;;;;;5.25;3.70;;;14.40;61.40;;;;;;5100232;27;20195;-77
2022/05/01 13:11:10;;;;;;;4.53;3.60;;;14.50;59.90;;;;;;5100636;27;20049;-76
2022/05/01 13:13:55;;;;;;;6.40;3.78;;;14.50;60.40;;;;;;5117723;27;20043;-77
2022/05/01 13:16:24;;;;;;;6.32;3.42;;;14.50;60.20;;;;;;5117462;27;20089;-76
2022/05/01 13:18:55;;;;;;;4.27;3.23;;;14.50;60.90;;;;;;5101246;27;20043;-76
2022/05/01 13:21:21;;;;;;;3.97;3.10;;;14.60;60.20;;;;;;5117405;27;20062;-76
2022/05/01 13:23:48;;;;;;;3.58;3.08;;;14.60;59.70;;;;;;5100674;27;20046;-76